sensor_id;sensor_type;location;lat;lon;timestamp;pressure;altitude;pressure_sealevel;temperature;humidity
58690;BME280;44470;53.206;-6.106;2023-02-15T00:01:54;101945.97;;;19.18;60.52
58690;BME280;44470;53.206;-6.106;2023-02-15T00:04:38;101954.00;;;19.24;60.24
58690;BME280;44470;53.206;-6.106;2023-02-15T00:07:14;101950.41;;;19.24;60.47
58690;BME280;44470;53.206;-6.106;2023-02-15T00:09:40;101951.31;;;19.24;60.65
58690;BME280;44470;53.206;-6.106;2023-02-15T00:12:05;101946.00;;;19.24;60.61
58690;BME280;44470;53.206;-6.106;2023-02-15T00:14:31;101931.72;;;19.17;60.67
58690;BME280;44470;53.206;-6.106;2023-02-15T00:16:56;101948.63;;;19.23;60.40
58690;BME280;44470;53.206;-6.106;2023-02-15T00:19:25;101941.53;;;19.22;60.42
58690;BME280;44470;53.206;-6.106;2023-02-15T00:21:51;101942.44;;;19.22;60.40
58690;BME280;44470;53.206;-6.106;2023-02-15T00:24:18;101935.31;;;19.21;60.42
58690;BME280;44470;53.206;-6.106;2023-02-15T00:26:44;101931.75;;;19.22;60.40
58690;BME280;44470;53.206;-6.106;2023-02-15T00:29:11;101933.50;;;19.22;60.72
58690;BME280;44470;53.206;-6.106;2023-02-15T00:31:37;101933.53;;;19.20;60.66
58690;BME280;44470;53.206;-6.106;2023-02-15T00:34:13;101923.72;;;19.21;60.56
58690;BME280;44470;53.206;-6.106;2023-02-15T00:36:40;101912.19;;;19.20;60.47
58690;BME280;44470;53.206;-6.106;2023-02-15T00:39:05;101901.50;;;19.20;60.58
58690;BME280;44470;53.206;-6.106;2023-02-15T00:41:32;101883.72;;;19.16;60.75
58690;BME280;44470;53.206;-6.106;2023-02-15T00:43:57;101880.16;;;19.11;60.82
58690;BME280;44470;53.206;-6.106;2023-02-15T00:46:23;101890.81;;;19.20;60.43
58690;BME280;44470;53.206;-6.106;2023-02-15T00:48:48;101881.94;;;19.15;60.74
58690;BME280;44470;53.206;-6.106;2023-02-15T00:51:14;101880.16;;;19.17;60.27
58690;BME280;44470;53.206;-6.106;2023-02-15T00:53:40;101880.13;;;19.19;60.24
58690;BME280;44470;53.206;-6.106;2023-02-15T00:56:06;101874.81;;;19.14;60.56
58690;BME280;44470;53.206;-6.106;2023-02-15T00:58:32;101885.47;;;19.19;60.67
58690;BME280;44470;53.206;-6.106;2023-02-15T01:01:13;101888.13;;;19.19;60.46
58690;BME280;44470;53.206;-6.106;2023-02-15T01:03:39;101868.59;;;19.15;60.34
58690;BME280;44470;53.206;-6.106;2023-02-15T01:06:08;101873.94;;;19.18;60.75
58690;BME280;44470;53.206;-6.106;2023-02-15T01:08:34;101858.78;;;19.15;60.51
58690;BME280;44470;53.206;-6.106;2023-02-15T01:11:09;101853.47;;;19.14;60.38
58690;BME280;44470;53.206;-6.106;2023-02-15T01:13:35;101852.56;;;19.15;60.49
58690;BME280;44470;53.206;-6.106;2023-02-15T01:16:01;101847.22;;;19.15;60.46
58690;BME280;44470;53.206;-6.106;2023-02-15T01:18:27;101848.13;;;19.17;60.58
58690;BME280;44470;53.206;-6.106;2023-02-15T01:20:52;101843.69;;;19.16;60.33
58690;BME280;44470;53.206;-6.106;2023-02-15T01:23:18;101832.97;;;19.14;60.48
58690;BME280;44470;53.206;-6.106;2023-02-15T01:25:45;101828.56;;;19.15;60.54
58690;BME280;44470;53.206;-6.106;2023-02-15T01:28:11;101824.09;;;19.15;60.26
58690;BME280;44470;53.206;-6.106;2023-02-15T01:30:38;101805.44;;;19.11;60.29
58690;BME280;44470;53.206;-6.106;2023-02-15T01:33:03;101808.97;;;19.14;60.43
58690;BME280;44470;53.206;-6.106;2023-02-15T01:35:36;101800.97;;;19.14;60.54
58690;BME280;44470;53.206;-6.106;2023-02-15T01:38:02;101797.41;;;19.15;60.20
58690;BME280;44470;53.206;-6.106;2023-02-15T01:40:27;101778.72;;;19.05;60.41
58690;BME280;44470;53.206;-6.106;2023-02-15T01:42:54;101793.88;;;19.15;60.35
58690;BME280;44470;53.206;-6.106;2023-02-15T01:45:27;101812.53;;;19.15;60.18
58690;BME280;44470;53.206;-6.106;2023-02-15T01:48:25;101812.53;;;19.15;60.34
58690;BME280;44470;53.206;-6.106;2023-02-15T01:51:00;101801.84;;;19.09;60.42
58690;BME280;44470;53.206;-6.106;2023-02-15T01:53:34;101803.66;;;19.13;60.34
58690;BME280;44470;53.206;-6.106;2023-02-15T01:56:13;101795.66;;;19.13;60.10
58690;BME280;44470;53.206;-6.106;2023-02-15T01:58:40;101794.75;;;19.14;60.23
58690;BME280;44470;53.206;-6.106;2023-02-15T02:01:08;101788.50;;;19.10;60.28
58690;BME280;44470;53.206;-6.106;2023-02-15T02:03:56;101784.97;;;19.13;60.42
58690;BME280;44470;53.206;-6.106;2023-02-15T02:06:24;101782.31;;;19.13;60.15
58690;BME280;44470;53.206;-6.106;2023-02-15T02:08:52;101770.72;;;19.08;60.39
58690;BME280;44470;53.206;-6.106;2023-02-15T02:11:17;101757.41;;;19.11;60.09
58690;BME280;44470;53.206;-6.106;2023-02-15T02:13:46;101735.13;;;19.06;60.26
58690;BME280;44470;53.206;-6.106;2023-02-15T02:27:49;101692.44;;;19.06;60.21
58690;BME280;44470;53.206;-6.106;2023-02-15T02:44:29;101688.03;;;19.11;60.46
58690;BME280;44470;53.206;-6.106;2023-02-15T02:47:05;101673.75;;;19.09;60.36
58690;BME280;44470;53.206;-6.106;2023-02-15T02:52:04;101694.25;;;19.10;60.30
58690;BME280;44470;53.206;-6.106;2023-02-15T02:54:33;101680.88;;;19.08;60.10
58690;BME280;44470;53.206;-6.106;2023-02-15T02:57:04;101669.31;;;19.08;59.81
58690;BME280;44470;53.206;-6.106;2023-02-15T02:59:35;101654.22;;;19.10;60.31
58690;BME280;44470;53.206;-6.106;2023-02-15T03:02:09;101639.06;;;19.09;60.34
58690;BME280;44470;53.206;-6.106;2023-02-15T03:04:40;101633.75;;;19.07;60.24
58690;BME280;44470;53.206;-6.106;2023-02-15T03:07:10;101627.53;;;19.10;59.96
58690;BME280;44470;53.206;-6.106;2023-02-15T03:09:41;101633.72;;;19.09;60.31
58690;BME280;44470;53.206;-6.106;2023-02-15T03:12:12;101625.72;;;19.09;60.03
58690;BME280;44470;53.206;-6.106;2023-02-15T03:14:45;101611.53;;;19.08;60.04
58690;BME280;44470;53.206;-6.106;2023-02-15T03:17:13;101618.63;;;19.08;60.19
58690;BME280;44470;53.206;-6.106;2023-02-15T03:19:40;101590.16;;;18.94;60.37
58690;BME280;44470;53.206;-6.106;2023-02-15T03:22:28;101612.41;;;19.07;60.27
58690;BME280;44470;53.206;-6.106;2023-02-15T03:25:15;101592.81;;;19.07;60.24
58690;BME280;44470;53.206;-6.106;2023-02-15T03:27:45;101591.94;;;19.05;60.36
58690;BME280;44470;53.206;-6.106;2023-02-15T03:30:13;101599.94;;;19.05;60.21
58690;BME280;44470;53.206;-6.106;2023-02-15T03:32:41;101593.72;;;19.06;60.05
58690;BME280;44470;53.206;-6.106;2023-02-15T03:35:08;101594.63;;;19.06;60.31
58690;BME280;44470;53.206;-6.106;2023-02-15T03:37:54;101598.19;;;19.05;59.94
58690;BME280;44470;53.206;-6.106;2023-02-15T03:40:26;101596.41;;;19.07;60.36
58690;BME280;44470;53.206;-6.106;2023-02-15T03:43:21;101594.63;;;19.06;60.25
58690;BME280;44470;53.206;-6.106;2023-02-15T03:45:52;101588.38;;;19.06;60.25
58690;BME280;44470;53.206;-6.106;2023-02-15T03:48:34;101585.72;;;19.06;60.19
58690;BME280;44470;53.206;-6.106;2023-02-15T03:51:04;101570.63;;;19.01;60.18
58690;BME280;44470;53.206;-6.106;2023-02-15T03:53:50;101565.28;;;19.05;60.42
58690;BME280;44470;53.206;-6.106;2023-02-15T03:56:17;101577.75;;;19.04;60.20
58690;BME280;44470;53.206;-6.106;2023-02-15T03:58:43;101567.03;;;19.06;60.18
58690;BME280;44470;53.206;-6.106;2023-02-15T04:01:40;101566.16;;;19.05;60.20
58690;BME280;44470;53.206;-6.106;2023-02-15T04:04:34;101571.50;;;19.05;60.30
58690;BME280;44470;53.206;-6.106;2023-02-15T04:07:01;101571.50;;;19.03;60.23
58690;BME280;44470;53.206;-6.106;2023-02-15T04:09:26;101573.28;;;19.03;59.99
58690;BME280;44470;53.206;-6.106;2023-02-15T04:12:11;101559.06;;;18.99;60.04
58690;BME280;44470;53.206;-6.106;2023-02-15T04:14:36;101567.06;;;19.02;60.08
58690;BME280;44470;53.206;-6.106;2023-02-15T04:17:20;101560.84;;;19.05;60.18
58690;BME280;44470;53.206;-6.106;2023-02-15T04:19:46;101574.16;;;19.03;59.89
58690;BME280;44470;53.206;-6.106;2023-02-15T04:22:30;101577.72;;;19.02;59.82
58690;BME280;44470;53.206;-6.106;2023-02-15T04:25:14;101572.38;;;19.02;60.24
58690;BME280;44470;53.206;-6.106;2023-02-15T04:27:46;101566.16;;;19.03;60.04
58690;BME280;44470;53.206;-6.106;2023-02-15T04:30:14;101558.16;;;19.03;60.16
58690;BME280;44470;53.206;-6.106;2023-02-15T04:32:40;101552.81;;;19.03;60.23
58690;BME280;44470;53.206;-6.106;2023-02-15T04:35:06;101549.25;;;19.05;60.19
58690;BME280;44470;53.206;-6.106;2023-02-15T04:37:32;101548.38;;;19.02;59.85
58690;BME280;44470;53.206;-6.106;2023-02-15T04:39:58;101537.72;;;19.04;59.99
58690;BME280;44470;53.206;-6.106;2023-02-15T04:42:25;101528.81;;;19.03;60.15
58690;BME280;44470;53.206;-6.106;2023-02-15T04:44:51;101524.38;;;19.01;60.09
58690;BME280;44470;53.206;-6.106;2023-02-15T04:47:17;101527.91;;;19.05;60.14
58690;BME280;44470;53.206;-6.106;2023-02-15T04:49:42;101508.38;;;18.99;60.34
58690;BME280;44470;53.206;-6.106;2023-02-15T04:52:08;101506.59;;;19.01;60.37
58690;BME280;44470;53.206;-6.106;2023-02-15T04:54:33;101514.59;;;19.06;60.36
58690;BME280;44470;53.206;-6.106;2023-02-15T04:56:59;101526.16;;;19.00;60.25
58690;BME280;44470;53.206;-6.106;2023-02-15T04:59:24;101524.34;;;19.06;60.55
58690;BME280;44470;53.206;-6.106;2023-02-15T05:01:50;101536.81;;;19.05;60.50
58690;BME280;44470;53.206;-6.106;2023-02-15T05:04:15;101523.47;;;19.03;60.34
58690;BME280;44470;53.206;-6.106;2023-02-15T05:06:41;101529.69;;;19.06;60.33
58690;BME280;44470;53.206;-6.106;2023-02-15T05:09:06;101518.16;;;19.05;60.26
58690;BME280;44470;53.206;-6.106;2023-02-15T05:11:32;101508.34;;;19.02;60.25
58690;BME280;44470;53.206;-6.106;2023-02-15T05:13:57;101505.69;;;19.07;60.61
58690;BME280;44470;53.206;-6.106;2023-02-15T05:16:23;101505.69;;;19.07;60.56
58690;BME280;44470;53.206;-6.106;2023-02-15T05:18:49;101476.31;;;19.06;60.65
58690;BME280;44470;53.206;-6.106;2023-02-15T05:21:14;101480.78;;;19.05;60.25
58690;BME280;44470;53.206;-6.106;2023-02-15T05:23:42;101501.25;;;19.06;60.69
58690;BME280;44470;53.206;-6.106;2023-02-15T05:26:17;101503.91;;;19.06;60.50
58690;BME280;44470;53.206;-6.106;2023-02-15T05:29:02;101515.47;;;19.07;60.65
58690;BME280;44470;53.206;-6.106;2023-02-15T05:31:27;101526.13;;;19.07;60.70
58690;BME280;44470;53.206;-6.106;2023-02-15T05:33:53;101557.28;;;19.06;60.40
58690;BME280;44470;53.206;-6.106;2023-02-15T05:36:18;101564.41;;;19.04;60.83
58690;BME280;44470;53.206;-6.106;2023-02-15T05:38:44;101571.50;;;19.08;60.43
58690;BME280;44470;53.206;-6.106;2023-02-15T05:41:10;101567.94;;;19.08;60.61
58690;BME280;44470;53.206;-6.106;2023-02-15T05:43:37;101578.59;;;19.09;60.55
58690;BME280;44470;53.206;-6.106;2023-02-15T05:46:03;101583.03;;;19.09;60.48
58690;BME280;44470;53.206;-6.106;2023-02-15T05:48:29;101590.16;;;19.07;60.93
58690;BME280;44470;53.206;-6.106;2023-02-15T05:51:10;101577.72;;;18.96;60.88
58690;BME280;44470;53.206;-6.106;2023-02-15T05:53:39;101607.97;;;19.06;60.80
58690;BME280;44470;53.206;-6.106;2023-02-15T05:56:06;101620.41;;;19.09;60.91
58690;BME280;44470;53.206;-6.106;2023-02-15T05:58:35;101621.28;;;19.08;60.90
58690;BME280;44470;53.206;-6.106;2023-02-15T06:01:10;101635.53;;;19.08;60.61
58690;BME280;44470;53.206;-6.106;2023-02-15T06:03:37;101642.63;;;19.08;60.72
58690;BME280;44470;53.206;-6.106;2023-02-15T06:06:02;101631.06;;;19.06;60.43
58690;BME280;44470;53.206;-6.106;2023-02-15T06:08:30;101639.09;;;19.06;60.92
58690;BME280;44470;53.206;-6.106;2023-02-15T06:10:56;101639.97;;;19.08;60.22
58690;BME280;44470;53.206;-6.106;2023-02-15T06:13:22;101637.31;;;19.05;60.82
58690;BME280;44470;53.206;-6.106;2023-02-15T06:15:47;101647.06;;;19.09;60.79
58690;BME280;44470;53.206;-6.106;2023-02-15T06:18:13;101655.97;;;19.08;60.55
58690;BME280;44470;53.206;-6.106;2023-02-15T06:20:38;101642.63;;;19.08;60.45
58690;BME280;44470;53.206;-6.106;2023-02-15T06:23:04;101634.63;;;19.08;60.62
58690;BME280;44470;53.206;-6.106;2023-02-15T06:25:30;101623.97;;;19.01;60.85
58690;BME280;44470;53.206;-6.106;2023-02-15T06:27:55;101631.97;;;19.08;60.52
58690;BME280;44470;53.206;-6.106;2023-02-15T06:30:21;101636.41;;;19.06;60.49
58690;BME280;44470;53.206;-6.106;2023-02-15T06:32:46;101635.53;;;19.03;60.54
58690;BME280;44470;53.206;-6.106;2023-02-15T06:35:12;101643.53;;;19.07;60.47
58690;BME280;44470;53.206;-6.106;2023-02-15T06:37:38;101634.63;;;19.05;60.45
58690;BME280;44470;53.206;-6.106;2023-02-15T06:40:04;101641.75;;;19.06;60.36
58690;BME280;44470;53.206;-6.106;2023-02-15T06:42:30;101639.97;;;19.06;60.22
58690;BME280;44470;53.206;-6.106;2023-02-15T06:44:55;101629.31;;;19.05;60.25
58690;BME280;44470;53.206;-6.106;2023-02-15T06:47:21;101638.19;;;19.03;60.13
58690;BME280;44470;53.206;-6.106;2023-02-15T06:49:46;101639.09;;;19.06;60.36
58690;BME280;44470;53.206;-6.106;2023-02-15T06:52:12;101641.75;;;19.06;60.50
58690;BME280;44470;53.206;-6.106;2023-02-15T06:54:37;101641.75;;;19.04;60.37
58690;BME280;44470;53.206;-6.106;2023-02-15T06:57:03;101631.97;;;19.06;60.26
58690;BME280;44470;53.206;-6.106;2023-02-15T06:59:28;101629.31;;;19.05;59.90
58690;BME280;44470;53.206;-6.106;2023-02-15T07:01:54;101627.53;;;19.03;60.36
58690;BME280;44470;53.206;-6.106;2023-02-15T07:04:19;101642.66;;;19.06;60.36
58690;BME280;44470;53.206;-6.106;2023-02-15T07:06:45;101638.22;;;19.05;60.08
58690;BME280;44470;53.206;-6.106;2023-02-15T07:09:11;101637.28;;;19.08;60.42
58690;BME280;44470;53.206;-6.106;2023-02-15T07:11:38;101631.97;;;19.05;60.42
58690;BME280;44470;53.206;-6.106;2023-02-15T07:14:21;101631.06;;;19.06;59.96
58690;BME280;44470;53.206;-6.106;2023-02-15T07:16:47;101644.41;;;19.06;60.48
58690;BME280;44470;53.206;-6.106;2023-02-15T07:19:13;101633.78;;;18.98;60.09
58690;BME280;44470;53.206;-6.106;2023-02-15T07:21:38;101647.09;;;19.06;60.17
58690;BME280;44470;53.206;-6.106;2023-02-15T07:24:04;101644.41;;;19.06;60.07
58690;BME280;44470;53.206;-6.106;2023-02-15T07:26:31;101639.97;;;19.05;60.46
58690;BME280;44470;53.206;-6.106;2023-02-15T07:28:57;101635.53;;;19.05;60.25
58690;BME280;44470;53.206;-6.106;2023-02-15T07:31:22;101626.66;;;19.00;60.39
58690;BME280;44470;53.206;-6.106;2023-02-15T07:33:48;101634.63;;;19.05;60.04
58690;BME280;44470;53.206;-6.106;2023-02-15T07:36:13;101630.19;;;19.03;60.47
58690;BME280;44470;53.206;-6.106;2023-02-15T07:38:40;101636.41;;;19.09;60.60
58690;BME280;44470;53.206;-6.106;2023-02-15T07:41:08;101618.63;;;19.08;60.26
58690;BME280;44470;53.206;-6.106;2023-02-15T07:43:37;101607.97;;;19.14;60.29
58690;BME280;44470;53.206;-6.106;2023-02-15T07:46:08;101604.38;;;19.09;60.02
58690;BME280;44470;53.206;-6.106;2023-02-15T07:48:35;101611.50;;;19.16;60.58
58690;BME280;44470;53.206;-6.106;2023-02-15T07:51:03;101599.06;;;19.18;60.97
58690;BME280;44470;53.206;-6.106;2023-02-15T07:53:29;101607.94;;;19.17;60.92
58690;BME280;44470;53.206;-6.106;2023-02-15T07:56:01;101606.16;;;19.19;60.28
58690;BME280;44470;53.206;-6.106;2023-02-15T07:58:27;101605.25;;;19.19;60.75
58690;BME280;44470;53.206;-6.106;2023-02-15T08:01:38;101615.06;;;19.15;59.76
58690;BME280;44470;53.206;-6.106;2023-02-15T08:04:05;101615.06;;;19.16;59.95
58690;BME280;44470;53.206;-6.106;2023-02-15T08:06:34;101622.19;;;19.16;59.92
58690;BME280;44470;53.206;-6.106;2023-02-15T08:09:02;101616.84;;;19.16;60.20
58690;BME280;44470;53.206;-6.106;2023-02-15T08:11:30;101617.75;;;19.15;60.18
58690;BME280;44470;53.206;-6.106;2023-02-15T08:18:57;101619.53;;;19.10;60.33
58690;BME280;44470;53.206;-6.106;2023-02-15T08:21:26;101636.41;;;19.15;60.21
58690;BME280;44470;53.206;-6.106;2023-02-15T08:23:52;101637.31;;;19.12;59.51
58690;BME280;44470;53.206;-6.106;2023-02-15T08:26:17;101643.53;;;19.07;57.03
58690;BME280;44470;53.206;-6.106;2023-02-15T08:28:43;101638.19;;;19.03;58.87
58690;BME280;44470;53.206;-6.106;2023-02-15T08:31:11;101645.31;;;19.08;59.29
58690;BME280;44470;53.206;-6.106;2023-02-15T08:33:38;101653.31;;;19.09;59.27
58690;BME280;44470;53.206;-6.106;2023-02-15T08:36:05;101663.09;;;19.15;59.60
58690;BME280;44470;53.206;-6.106;2023-02-15T08:38:31;101647.09;;;19.10;59.48
58690;BME280;44470;53.206;-6.106;2023-02-15T08:40:58;101650.66;;;19.14;59.68
58690;BME280;44470;53.206;-6.106;2023-02-15T08:43:33;101656.00;;;19.11;59.54
58690;BME280;44470;53.206;-6.106;2023-02-15T08:45:58;101652.44;;;19.12;59.74
58690;BME280;44470;53.206;-6.106;2023-02-15T08:48:24;101653.31;;;19.12;59.59
58690;BME280;44470;53.206;-6.106;2023-02-15T08:50:49;101664.88;;;19.16;59.67
58690;BME280;44470;53.206;-6.106;2023-02-15T08:53:15;101647.09;;;19.12;59.68
58690;BME280;44470;53.206;-6.106;2023-02-15T08:55:40;101647.09;;;19.15;59.86
58690;BME280;44470;53.206;-6.106;2023-02-15T08:58:06;101655.06;;;19.16;59.63
58690;BME280;44470;53.206;-6.106;2023-02-15T09:00:31;101651.53;;;19.17;59.48
58690;BME280;44470;53.206;-6.106;2023-02-15T09:02:57;101647.97;;;19.17;60.09
58690;BME280;44470;53.206;-6.106;2023-02-15T09:05:22;101654.19;;;19.19;60.02
58690;BME280;44470;53.206;-6.106;2023-02-15T09:07:48;101663.97;;;19.20;58.99
58690;BME280;44470;53.206;-6.106;2023-02-15T09:10:13;101666.66;;;19.12;55.96
58690;BME280;44470;53.206;-6.106;2023-02-15T09:12:39;101679.13;;;19.12;58.41
58690;BME280;44470;53.206;-6.106;2023-02-15T09:15:04;101689.78;;;19.15;58.81
58690;BME280;44470;53.206;-6.106;2023-02-15T09:17:30;101687.13;;;19.15;58.83
58690;BME280;44470;53.206;-6.106;2023-02-15T09:19:56;101680.91;;;19.10;55.58
58690;BME280;44470;53.206;-6.106;2023-02-15T09:22:22;101702.25;;;19.10;55.96
58690;BME280;44470;53.206;-6.106;2023-02-15T09:24:47;101696.03;;;19.11;58.13
58690;BME280;44470;53.206;-6.106;2023-02-15T09:27:13;101706.69;;;19.14;58.19
58690;BME280;44470;53.206;-6.106;2023-02-15T09:29:38;101701.34;;;19.15;58.13
58690;BME280;44470;53.206;-6.106;2023-02-15T09:32:04;101696.91;;;19.16;58.57
58690;BME280;44470;53.206;-6.106;2023-02-15T09:34:30;101698.69;;;19.17;58.74
58690;BME280;44470;53.206;-6.106;2023-02-15T09:36:56;101704.00;;;19.19;58.11
58690;BME280;44470;53.206;-6.106;2023-02-15T09:39:23;101710.25;;;19.19;59.19
58690;BME280;44470;53.206;-6.106;2023-02-15T09:50:03;101704.03;;;19.11;58.60
58690;BME280;44470;53.206;-6.106;2023-02-15T09:52:46;101704.91;;;19.16;58.75
58690;BME280;44470;53.206;-6.106;2023-02-15T10:25:04;101739.59;;;19.22;59.22
58690;BME280;44470;53.206;-6.106;2023-02-15T10:27:42;101729.78;;;19.16;59.19
58690;BME280;44470;53.206;-6.106;2023-02-15T10:30:12;101736.03;;;19.20;59.39
58690;BME280;44470;53.206;-6.106;2023-02-15T10:33:04;101742.25;;;19.22;59.27
58690;BME280;44470;53.206;-6.106;2023-02-15T10:38:20;101736.03;;;19.22;59.15
58690;BME280;44470;53.206;-6.106;2023-02-15T10:54:30;101704.91;;;19.19;59.10
58690;BME280;44470;53.206;-6.106;2023-02-15T10:57:33;101710.25;;;19.19;59.35
58690;BME280;44470;53.206;-6.106;2023-02-15T11:03:00;101708.44;;;19.24;59.51
58690;BME280;44470;53.206;-6.106;2023-02-15T11:05:41;101714.69;;;19.26;59.36
58690;BME280;44470;53.206;-6.106;2023-02-15T11:08:15;101712.91;;;19.22;59.54
58690;BME280;44470;53.206;-6.106;2023-02-15T11:10:53;101725.34;;;19.26;59.19
58690;BME280;44470;53.206;-6.106;2023-02-15T11:13:22;101731.56;;;19.27;59.42
58690;BME280;44470;53.206;-6.106;2023-02-15T11:16:01;101728.91;;;19.28;59.15
58690;BME280;44470;53.206;-6.106;2023-02-15T11:18:38;101734.25;;;19.28;59.48
58690;BME280;44470;53.206;-6.106;2023-02-15T11:23:42;101732.44;;;19.29;59.29
58690;BME280;44470;53.206;-6.106;2023-02-15T11:26:21;101731.56;;;19.30;59.58
58690;BME280;44470;53.206;-6.106;2023-02-15T11:28:56;101736.03;;;19.29;59.23
58690;BME280;44470;53.206;-6.106;2023-02-15T11:31:25;101736.91;;;19.30;59.30
58690;BME280;44470;53.206;-6.106;2023-02-15T11:33:59;101722.66;;;19.28;59.20
58690;BME280;44470;53.206;-6.106;2023-02-15T11:36:35;101724.47;;;19.27;59.42
58690;BME280;44470;53.206;-6.106;2023-02-15T11:39:15;101719.13;;;19.27;59.35
58690;BME280;44470;53.206;-6.106;2023-02-15T11:41:45;101728.91;;;19.31;59.51
58690;BME280;44470;53.206;-6.106;2023-02-15T11:44:15;101739.56;;;19.33;59.41
58690;BME280;44470;53.206;-6.106;2023-02-15T11:46:43;101732.44;;;19.32;59.52
58690;BME280;44470;53.206;-6.106;2023-02-15T11:51:55;101728.88;;;19.33;59.28
58690;BME280;44470;53.206;-6.106;2023-02-15T11:54:29;101727.13;;;19.34;59.48
58690;BME280;44470;53.206;-6.106;2023-02-15T11:57:28;101732.44;;;19.34;59.25
58690;BME280;44470;53.206;-6.106;2023-02-15T12:01:02;101728.88;;;19.35;59.14
58690;BME280;44470;53.206;-6.106;2023-02-15T12:03:29;101733.31;;;19.34;59.14
58690;BME280;44470;53.206;-6.106;2023-02-15T12:06:03;101735.09;;;19.35;58.94
58690;BME280;44470;53.206;-6.106;2023-02-15T12:08:42;101739.56;;;19.31;58.80
58690;BME280;44470;53.206;-6.106;2023-02-15T12:11:15;101752.03;;;19.36;59.28
58690;BME280;44470;53.206;-6.106;2023-02-15T12:14:00;101749.34;;;19.36;59.28
58690;BME280;44470;53.206;-6.106;2023-02-15T12:16:27;101750.25;;;19.35;59.41
58690;BME280;44470;53.206;-6.106;2023-02-15T12:18:59;101758.25;;;19.33;59.23
58690;BME280;44470;53.206;-6.106;2023-02-15T12:21:34;101752.03;;;19.36;59.06
58690;BME280;44470;53.206;-6.106;2023-02-15T12:26:44;101743.13;;;19.37;59.19
58690;BME280;44470;53.206;-6.106;2023-02-15T12:29:23;101736.00;;;19.42;59.68
58690;BME280;44470;53.206;-6.106;2023-02-15T12:31:52;101735.13;;;19.38;59.21
58690;BME280;44470;53.206;-6.106;2023-02-15T12:34:21;101736.00;;;19.45;59.67
58690;BME280;44470;53.206;-6.106;2023-02-15T12:36:49;101736.00;;;19.45;59.45
58690;BME280;44470;53.206;-6.106;2023-02-15T12:39:18;101728.88;;;19.45;59.76
58690;BME280;44470;53.206;-6.106;2023-02-15T12:42:13;101738.66;;;19.46;59.70
58690;BME280;44470;53.206;-6.106;2023-02-15T12:47:20;101736.00;;;19.45;59.18
58690;BME280;44470;53.206;-6.106;2023-02-15T12:50:23;101731.56;;;19.45;59.35
58690;BME280;44470;53.206;-6.106;2023-02-15T12:53:15;101730.66;;;19.45;58.90
58690;BME280;44470;53.206;-6.106;2023-02-15T12:56:01;101732.44;;;19.43;58.79
58690;BME280;44470;53.206;-6.106;2023-02-15T12:58:38;101730.66;;;19.42;58.76
58690;BME280;44470;53.206;-6.106;2023-02-15T13:01:12;101735.13;;;19.41;58.97
58690;BME280;44470;53.206;-6.106;2023-02-15T13:06:21;101723.56;;;19.39;58.90
58690;BME280;44470;53.206;-6.106;2023-02-15T13:08:49;101720.00;;;19.37;59.02
58690;BME280;44470;53.206;-6.106;2023-02-15T13:11:30;101739.56;;;19.41;58.63
58690;BME280;44470;53.206;-6.106;2023-02-15T13:14:16;101736.00;;;19.40;58.71
58690;BME280;44470;53.206;-6.106;2023-02-15T13:16:44;101728.88;;;19.41;58.81
58690;BME280;44470;53.206;-6.106;2023-02-15T13:19:19;101716.41;;;19.35;58.94
58690;BME280;44470;53.206;-6.106;2023-02-15T13:21:51;101728.88;;;19.41;58.36
58690;BME280;44470;53.206;-6.106;2023-02-15T13:24:22;101722.66;;;19.39;58.45
58690;BME280;44470;53.206;-6.106;2023-02-15T13:26:48;101727.09;;;19.40;58.93
58690;BME280;44470;53.206;-6.106;2023-02-15T13:29:31;101721.75;;;19.43;58.81
58690;BME280;44470;53.206;-6.106;2023-02-15T13:32:05;101724.44;;;19.38;58.69
58690;BME280;44470;53.206;-6.106;2023-02-15T13:34:34;101730.66;;;19.42;58.80
58690;BME280;44470;53.206;-6.106;2023-02-15T13:37:21;101724.44;;;19.43;58.43
58690;BME280;44470;53.206;-6.106;2023-02-15T13:40:03;101713.75;;;19.37;58.80
58690;BME280;44470;53.206;-6.106;2023-02-15T13:42:40;101714.66;;;19.39;58.40
58690;BME280;44470;53.206;-6.106;2023-02-15T13:53:39;101714.63;;;19.45;58.36
58690;BME280;44470;53.206;-6.106;2023-02-15T13:56:20;101714.63;;;19.45;58.50
58690;BME280;44470;53.206;-6.106;2023-02-15T14:01:54;101716.41;;;19.46;58.29
58690;BME280;44470;53.206;-6.106;2023-02-15T14:04:56;101712.88;;;19.45;58.48
58690;BME280;44470;53.206;-6.106;2023-02-15T14:10:14;101717.31;;;19.46;58.57
58690;BME280;44470;53.206;-6.106;2023-02-15T14:29:16;101706.63;;;19.46;58.49
58690;BME280;44470;53.206;-6.106;2023-02-15T14:31:48;101693.28;;;19.46;58.77
58690;BME280;44470;53.206;-6.106;2023-02-15T14:34:30;101704.84;;;19.47;58.62
58690;BME280;44470;53.206;-6.106;2023-02-15T14:37:01;101708.41;;;19.46;58.82
58690;BME280;44470;53.206;-6.106;2023-02-15T14:43:07;101715.50;;;19.47;58.35
58690;BME280;44470;53.206;-6.106;2023-02-15T14:46:02;101713.75;;;19.48;58.65
58690;BME280;44470;53.206;-6.106;2023-02-15T14:48:30;101715.53;;;19.49;58.43
58690;BME280;44470;53.206;-6.106;2023-02-15T14:50:57;101705.72;;;19.46;58.41
58690;BME280;44470;53.206;-6.106;2023-02-15T14:53:25;101706.59;;;19.48;58.31
58690;BME280;44470;53.206;-6.106;2023-02-15T15:01:28;101722.63;;;19.50;58.56
58690;BME280;44470;53.206;-6.106;2023-02-15T15:04:01;101719.97;;;19.48;58.63
58690;BME280;44470;53.206;-6.106;2023-02-15T15:06:33;101719.97;;;19.48;58.63
58690;BME280;44470;53.206;-6.106;2023-02-15T15:09:24;101721.72;;;19.49;58.70
58690;BME280;44470;53.206;-6.106;2023-02-15T15:11:53;101716.41;;;19.49;58.76
58690;BME280;44470;53.206;-6.106;2023-02-15T15:16:57;101725.31;;;19.48;58.60
58690;BME280;44470;53.206;-6.106;2023-02-15T15:22:23;101709.28;;;19.50;58.58
58690;BME280;44470;53.206;-6.106;2023-02-15T15:24:50;101711.06;;;19.49;58.57
58690;BME280;44470;53.206;-6.106;2023-02-15T15:27:51;101702.16;;;19.50;58.63
58690;BME280;44470;53.206;-6.106;2023-02-15T15:44:42;101679.91;;;19.48;58.68